createdAt,value
2023-05-10T04:59:06.032Z,11.82
2023-05-10T05:04:11.452Z,11.94
2023-05-10T05:09:19.405Z,11.76
2023-05-10T05:14:27.798Z,11.98
2023-05-10T05:19:34.460Z,12.09
2023-05-10T05:24:41.369Z,12.19
2023-05-10T05:29:45.708Z,12.10
2023-05-10T05:34:50.226Z,12.90
2023-05-10T05:39:55.991Z,12.73
2023-05-10T05:45:00.582Z,12.68
2023-05-10T05:50:04.939Z,12.55
2023-05-10T05:55:09.851Z,12.35
2023-05-10T06:00:14.586Z,12.41
2023-05-10T06:05:19.175Z,12.50
2023-05-10T06:10:24.554Z,12.48
2023-05-10T06:15:29.676Z,12.39
2023-05-10T06:20:33.871Z,12.36
2023-05-10T06:25:38.439Z,12.30
2023-05-10T06:30:42.468Z,12.13
2023-05-10T06:35:46.584Z,12.18
2023-05-10T06:40:50.853Z,12.08
2023-05-10T06:45:54.935Z,12.32
2023-05-10T06:50:59.020Z,12.39
2023-05-10T06:56:04.689Z,12.47
2023-05-10T07:01:09.023Z,12.40
2023-05-10T07:06:29.286Z,12.34
2023-05-10T07:11:38.940Z,12.49
2023-05-10T07:16:43.260Z,12.41
2023-05-10T07:21:47.583Z,12.87
2023-05-10T07:26:51.840Z,13.23
2023-05-10T07:31:58.713Z,13.46
2023-05-10T07:37:03.736Z,13.26
2023-05-10T07:42:07.853Z,13.15
2023-05-10T07:47:12.856Z,12.97
2023-05-10T07:52:17.009Z,13.13
2023-05-10T07:57:21.407Z,13.22
2023-05-10T08:02:25.533Z,13.45
2023-05-10T08:07:29.797Z,13.50
2023-05-10T08:12:33.972Z,13.48
2023-05-10T08:17:38.272Z,13.58
2023-05-10T08:22:43.916Z,13.60
2023-05-10T08:27:48.083Z,13.64
2023-05-10T08:32:52.209Z,13.78
2023-05-10T08:37:56.816Z,13.81
2023-05-10T08:43:10.342Z,13.97
2023-05-10T08:48:16.249Z,13.91
2023-05-10T08:53:21.797Z,14.03
2023-05-10T08:58:25.922Z,13.99
2023-05-10T09:03:30.381Z,14.18
2023-05-10T09:08:35.559Z,14.32
2023-05-10T09:13:40.105Z,14.33
2023-05-10T09:18:44.230Z,14.39
2023-05-10T09:23:51.496Z,14.42
2023-05-10T09:28:59.514Z,14.74
2023-05-10T09:34:03.569Z,14.77
2023-05-10T09:39:07.789Z,14.86
2023-05-10T09:44:11.809Z,14.96
2023-05-10T09:49:16.834Z,15.02
2023-05-10T09:54:20.952Z,14.99
2023-05-10T09:59:27.919Z,15.02
2023-05-10T10:04:32.609Z,15.51
2023-05-10T10:09:37.047Z,15.91
2023-05-10T10:14:41.495Z,16.07
2023-05-10T10:19:47.015Z,16.20
2023-05-10T10:24:54.132Z,16.61
2023-05-10T10:30:21.648Z,16.77
2023-05-10T10:35:27.716Z,17.09
2023-05-10T10:40:35.257Z,17.05
2023-05-10T10:45:45.352Z,17.01
2023-05-10T10:50:49.635Z,16.88
2023-05-10T10:56:08.545Z,16.89
2023-05-10T11:01:18.099Z,16.90
2023-05-10T11:06:36.680Z,16.99
2023-05-10T11:11:57.172Z,17.12
2023-05-10T11:17:03.761Z,16.95
2023-05-10T11:22:15.220Z,16.87
2023-05-10T11:27:19.810Z,16.95
2023-05-10T11:32:24.848Z,17.02
2023-05-10T11:37:37.645Z,16.94
2023-05-10T11:42:41.860Z,16.90
2023-05-10T11:47:46.014Z,16.73
2023-05-10T11:52:58.298Z,16.67
2023-05-10T11:58:04.131Z,16.71
2023-05-10T12:03:09.579Z,16.68
2023-05-10T12:08:21.973Z,16.67
2023-05-10T12:13:27.240Z,16.51
2023-05-10T12:18:31.830Z,16.48
2023-05-10T12:23:36.043Z,16.36
2023-05-10T12:28:41.483Z,16.28
2023-05-10T12:33:47.302Z,16.12
2023-05-10T12:38:54.247Z,16.00
2023-05-10T12:43:58.606Z,15.81
2023-05-10T12:49:08.899Z,15.88
2023-05-10T12:54:13.548Z,15.72
2023-05-10T12:59:17.791Z,15.72
2023-05-10T13:04:22.881Z,15.72
2023-05-10T13:09:56.573Z,15.65
2023-05-10T13:15:02.196Z,15.54
2023-05-10T13:20:13.686Z,15.41
2023-05-10T13:25:19.712Z,15.36
2023-05-10T13:30:25.830Z,15.36
2023-05-10T13:35:31.334Z,15.33
2023-05-10T13:40:38.228Z,15.26
2023-05-10T13:45:43.696Z,15.32
2023-05-10T13:50:49.453Z,15.22
2023-05-10T13:55:54.950Z,15.22
2023-05-10T14:01:00.468Z,14.98
2023-05-10T14:06:06.444Z,15.00
2023-05-10T14:11:16.787Z,15.13
2023-05-10T14:16:23.001Z,15.23
2023-05-10T14:21:29.556Z,15.32
2023-05-10T14:26:36.004Z,15.26
2023-05-10T14:31:42.397Z,14.94
2023-05-10T14:36:47.956Z,15.06
2023-05-10T14:41:54.319Z,15.03
2023-05-10T14:47:01.424Z,15.02
2023-05-10T14:52:10.507Z,15.03
2023-05-10T14:57:16.945Z,15.02
2023-05-10T15:02:23.112Z,14.95
2023-05-10T15:07:28.965Z,15.06
2023-05-10T15:12:34.972Z,14.98
2023-05-10T15:17:40.672Z,14.96
2023-05-10T15:22:46.482Z,14.72
2023-05-10T15:27:52.785Z,14.83
2023-05-10T15:32:58.368Z,14.63
2023-05-10T15:38:05.211Z,14.46
2023-05-10T15:43:12.024Z,14.46
2023-05-10T15:48:18.041Z,14.38
2023-05-10T15:53:23.556Z,14.32
2023-05-10T15:58:28.902Z,14.26
2023-05-10T16:03:37.396Z,14.19
2023-05-10T16:08:43.375Z,14.17
2023-05-10T16:13:48.822Z,14.13
2023-05-10T16:18:54.904Z,14.12
2023-05-10T16:24:02.056Z,14.01
2023-05-10T16:29:10.053Z,14.04
2023-05-10T16:34:15.482Z,14.02
2023-05-10T16:39:22.109Z,13.90
2023-05-10T16:44:29.385Z,13.88
2023-05-10T16:49:36.985Z,13.90
2023-05-10T16:54:43.169Z,13.88
2023-05-10T16:59:49.967Z,13.91
2023-05-10T17:04:56.764Z,13.78
2023-05-10T17:10:02.873Z,13.84
2023-05-10T17:15:10.821Z,13.72
2023-05-10T17:20:23.499Z,13.78
2023-05-10T17:25:28.957Z,13.82
2023-05-10T17:30:34.776Z,13.78
2023-05-10T17:35:40.710Z,13.78
2023-05-10T17:40:46.281Z,13.54
2023-05-10T17:45:51.693Z,13.64
2023-05-10T17:50:57.695Z,13.72
2023-05-10T17:56:03.437Z,13.60
2023-05-10T18:01:11.304Z,13.63
2023-05-10T18:06:17.265Z,13.68
2023-05-10T18:11:25.188Z,13.64
2023-05-10T18:16:31.097Z,13.48
2023-05-10T18:21:37.202Z,13.52
2023-05-10T18:26:44.263Z,13.40
2023-05-10T18:31:50.098Z,13.53
2023-05-10T18:36:55.802Z,13.42
2023-05-10T18:42:01.572Z,13.41
2023-05-10T18:47:09.803Z,13.50
2023-05-10T18:52:16.553Z,13.53
2023-05-10T18:57:22.650Z,13.51
2023-05-10T19:02:28.415Z,13.46
2023-05-10T19:07:35.584Z,13.43
2023-05-10T19:12:47.868Z,13.44
2023-05-10T19:17:54.458Z,13.39
2023-05-10T19:23:09.852Z,13.34
2023-05-10T19:28:19.987Z,13.29
2023-05-10T19:33:26.911Z,13.19
2023-05-10T19:38:32.222Z,13.23
2023-05-10T19:43:39.020Z,13.23
2023-05-10T19:48:46.801Z,13.14
2023-05-10T19:53:53.429Z,13.01
2023-05-10T19:58:58.820Z,13.00
2023-05-10T20:04:04.241Z,12.94
2023-05-10T20:09:10.443Z,12.81
2023-05-10T20:14:15.909Z,12.79
2023-05-10T20:19:21.499Z,12.78
2023-05-10T20:24:27.113Z,12.82
2023-05-10T20:29:33.197Z,12.79
2023-05-10T20:34:38.729Z,12.75
2023-05-10T20:39:43.813Z,12.89
2023-05-10T20:44:49.219Z,12.79
2023-05-10T20:49:54.686Z,12.92
2023-05-10T20:55:01.852Z,12.84
2023-05-10T21:00:10.039Z,12.79
2023-05-10T21:05:15.641Z,12.66
2023-05-10T21:10:22.113Z,12.72
2023-05-10T21:15:29.262Z,12.64
2023-05-10T21:20:35.135Z,12.66
2023-05-10T21:25:40.996Z,12.64
2023-05-10T21:30:46.887Z,12.65
2023-05-10T21:35:53.696Z,12.63
2023-05-10T21:40:59.359Z,12.60
2023-05-10T21:46:05.427Z,12.54
2023-05-10T21:51:11.297Z,12.38
2023-05-10T21:56:17.212Z,12.53
2023-05-10T22:01:23.034Z,12.49
2023-05-10T22:06:29.702Z,12.49
2023-05-10T22:11:35.462Z,12.52
2023-05-10T22:16:41.115Z,12.52
2023-05-10T22:21:46.969Z,12.50
2023-05-10T22:26:56.707Z,12.57
2023-05-10T22:32:16.695Z,12.57
2023-05-10T22:37:23.824Z,12.53
2023-05-10T22:42:30.942Z,12.51
2023-05-10T22:47:36.318Z,12.45
2023-05-10T22:52:41.796Z,12.50
2023-05-10T22:57:47.465Z,12.30
2023-05-10T23:02:55.814Z,12.42
2023-05-10T23:08:02.016Z,12.33
2023-05-10T23:13:08.903Z,12.18
2023-05-10T23:18:14.333Z,12.38
2023-05-10T23:23:20.173Z,12.43
2023-05-10T23:28:27.236Z,12.32
2023-05-10T23:33:32.528Z,12.35
2023-05-10T23:38:40.155Z,12.34
2023-05-10T23:43:45.129Z,12.25
2023-05-10T23:48:50.604Z,12.29
2023-05-10T23:53:56.159Z,12.02
2023-05-10T23:59:01.615Z,12.12
